RYR23BF EGPH-EIDW
Flight info
| Callsign | RYR23BF |
|---|---|
| Flight time | 0h 48m |
| Altitude | 22000 |
| Route | GOSAM P600 TRN DCT BLACA P620 NIMAT NIMAT4L |
| Aircraft | B738/M-SDE2E3FGHIRWXY/LB1 |
Departure
| Time | 2026-04-26 16:14 |
|---|---|
| Airport | Edinburgh Airport (EGPH) |
Arrival
| Time | 2026-04-26 17:03 |
|---|---|
| Airport | Dublin Airport (EIDW) |
| Time | Latitude | Longitude | Altitude | Speed | Heading |
|---|---|---|---|---|---|
| 2026-04-26 15:43 | 55.94612 | -3.36634 | 115 ft | 0 kts | 89° |
| 2026-04-26 16:03 | 55.94612 | -3.36659 | 112 ft | 4 kts | 84° |
| 2026-04-26 16:03 | 55.94606 | -3.36704 | 111 ft | 4 kts | 60° |
| 2026-04-26 16:03 | 55.94590 | -3.36732 | 112 ft | 3 kts | 3° |
| 2026-04-26 16:03 | 55.94586 | -3.36733 | 112 ft | 0 kts | 359° |
| 2026-04-26 16:09 | 55.94588 | -3.36733 | 115 ft | 2 kts | 359° |
| 2026-04-26 16:09 | 55.94610 | -3.36734 | 115 ft | 5 kts | 359° |
| 2026-04-26 16:10 | 55.94655 | -3.36736 | 115 ft | 8 kts | 359° |
| 2026-04-26 16:10 | 55.94721 | -3.36739 | 115 ft | 11 kts | 358° |
| 2026-04-26 16:10 | 55.94795 | -3.36773 | 115 ft | 11 kts | 350° |
| 2026-04-26 16:10 | 55.94869 | -3.36782 | 115 ft | 11 kts | 347° |
| 2026-04-26 16:11 | 55.94923 | -3.36858 | 113 ft | 10 kts | 287° |
| 2026-04-26 16:11 | 55.94900 | -3.36972 | 114 ft | 10 kts | 237° |
| 2026-04-26 16:11 | 55.94858 | -3.37092 | 114 ft | 13 kts | 238° |
| 2026-04-26 16:11 | 55.94806 | -3.37246 | 113 ft | 16 kts | 239° |
| 2026-04-26 16:12 | 55.94744 | -3.37430 | 111 ft | 18 kts | 238° |
| 2026-04-26 16:12 | 55.94674 | -3.37638 | 114 ft | 20 kts | 239° |
| 2026-04-26 16:12 | 55.94599 | -3.37948 | 112 ft | 11 kts | 305° |
| 2026-04-26 16:13 | 55.94612 | -3.37968 | 113 ft | 0 kts | 323° |
| 2026-04-26 16:13 | 55.94613 | -3.37970 | 113 ft | 1 kts | 323° |
| 2026-04-26 16:13 | 55.94650 | -3.38014 | 114 ft | 12 kts | 328° |
| 2026-04-26 16:13 | 55.94703 | -3.38068 | 111 ft | 8 kts | 341° |
| 2026-04-26 16:14 | 55.94742 | -3.38009 | 114 ft | 9 kts | 56° |
| 2026-04-26 16:14 | 55.94860 | -3.37664 | 113 ft | 71 kts | 59° |
| 2026-04-26 16:14 | 55.95832 | -3.34843 | 753 ft | 154 kts | 59° |
| 2026-04-26 16:15 | 55.96438 | -3.33342 | 1701 ft | 154 kts | 39° |
| 2026-04-26 16:15 | 55.97337 | -3.32164 | 2334 ft | 173 kts | 38° |
| 2026-04-26 16:15 | 55.98296 | -3.30552 | 2864 ft | 203 kts | 45° |
| 2026-04-26 16:16 | 56.00916 | -3.28048 | 4117 ft | 226 kts | 353° |
| 2026-04-26 16:16 | 56.02350 | -3.28997 | 5069 ft | 219 kts | 317° |
| 2026-04-26 16:16 | 56.03226 | -3.31163 | 5694 ft | 217 kts | 284° |
| 2026-04-26 16:16 | 56.03237 | -3.33819 | 6008 ft | 217 kts | 258° |
| 2026-04-26 16:17 | 56.02880 | -3.36468 | 5993 ft | 219 kts | 254° |
| 2026-04-26 16:17 | 56.02484 | -3.39086 | 6002 ft | 218 kts | 254° |
| 2026-04-26 16:17 | 56.02098 | -3.41671 | 6027 ft | 221 kts | 254° |
| 2026-04-26 16:17 | 56.01688 | -3.44436 | 6204 ft | 243 kts | 254° |
| 2026-04-26 16:18 | 56.01244 | -3.47489 | 6816 ft | 260 kts | 255° |
| 2026-04-26 16:18 | 56.00347 | -3.53779 | 8768 ft | 261 kts | 254° |
| 2026-04-26 16:19 | 55.99441 | -3.60124 | 10605 ft | 269 kts | 254° |
| 2026-04-26 16:19 | 55.98953 | -3.63522 | 10871 ft | 296 kts | 254° |
| 2026-04-26 16:19 | 55.98059 | -3.69743 | 11758 ft | 319 kts | 255° |
| 2026-04-26 16:20 | 55.97316 | -3.74916 | 12864 ft | 324 kts | 255° |
| 2026-04-26 16:20 | 55.96372 | -3.81461 | 14217 ft | 331 kts | 255° |
| 2026-04-26 16:20 | 55.95793 | -3.85473 | 14983 ft | 335 kts | 255° |
| 2026-04-26 16:21 | 55.95207 | -3.89511 | 15796 ft | 337 kts | 255° |
| 2026-04-26 16:21 | 55.94616 | -3.93569 | 16689 ft | 337 kts | 255° |
| 2026-04-26 16:21 | 55.93988 | -3.97576 | 17757 ft | 332 kts | 250° |
| 2026-04-26 16:21 | 55.92929 | -4.01177 | 18863 ft | 327 kts | 237° |
| 2026-04-26 16:22 | 55.91502 | -4.04318 | 19698 ft | 328 kts | 228° |
| 2026-04-26 16:22 | 55.89753 | -4.06964 | 20441 ft | 332 kts | 218° |
| 2026-04-26 16:22 | 55.87843 | -4.09280 | 21259 ft | 332 kts | 217° |
| 2026-04-26 16:22 | 55.85923 | -4.11560 | 21915 ft | 333 kts | 217° |
| 2026-04-26 16:23 | 55.84003 | -4.13851 | 22231 ft | 331 kts | 217° |
| 2026-04-26 16:23 | 55.82089 | -4.16156 | 22224 ft | 332 kts | 217° |
| 2026-04-26 16:23 | 55.80189 | -4.18452 | 22236 ft | 330 kts | 218° |
| 2026-04-26 16:23 | 55.78295 | -4.20749 | 22250 ft | 329 kts | 218° |
| 2026-04-26 16:24 | 55.76421 | -4.23077 | 22245 ft | 329 kts | 218° |
| 2026-04-26 16:24 | 55.74551 | -4.25413 | 22241 ft | 329 kts | 218° |
| 2026-04-26 16:24 | 55.72679 | -4.27744 | 22244 ft | 329 kts | 218° |
| 2026-04-26 16:24 | 55.70808 | -4.30067 | 22228 ft | 329 kts | 218° |
| 2026-04-26 16:25 | 55.68956 | -4.32360 | 22237 ft | 329 kts | 218° |
| 2026-04-26 16:25 | 55.67053 | -4.34713 | 22244 ft | 330 kts | 218° |
| 2026-04-26 16:25 | 55.65169 | -4.37040 | 22249 ft | 330 kts | 218° |
| 2026-04-26 16:25 | 55.63284 | -4.39366 | 22251 ft | 331 kts | 218° |
| 2026-04-26 16:26 | 55.61394 | -4.41695 | 22247 ft | 332 kts | 218° |
| 2026-04-26 16:26 | 55.59498 | -4.44030 | 22244 ft | 332 kts | 218° |
| 2026-04-26 16:26 | 55.57625 | -4.46333 | 22245 ft | 333 kts | 218° |
| 2026-04-26 16:26 | 55.55725 | -4.48668 | 22250 ft | 333 kts | 218° |
| 2026-04-26 16:27 | 55.53824 | -4.51000 | 22267 ft | 333 kts | 218° |
| 2026-04-26 16:27 | 55.51920 | -4.53333 | 22267 ft | 333 kts | 218° |
| 2026-04-26 16:27 | 55.50019 | -4.55660 | 22272 ft | 333 kts | 218° |
| 2026-04-26 16:27 | 55.48115 | -4.57989 | 22264 ft | 333 kts | 218° |
| 2026-04-26 16:28 | 55.46212 | -4.60313 | 22265 ft | 333 kts | 218° |
| 2026-04-26 16:28 | 55.44310 | -4.62634 | 22266 ft | 332 kts | 218° |
| 2026-04-26 16:28 | 55.42406 | -4.64953 | 22249 ft | 332 kts | 218° |
| 2026-04-26 16:28 | 55.40506 | -4.67266 | 22258 ft | 332 kts | 218° |
| 2026-04-26 16:29 | 55.38607 | -4.69575 | 22253 ft | 332 kts | 218° |
| 2026-04-26 16:29 | 55.36707 | -4.71884 | 22262 ft | 332 kts | 218° |
| 2026-04-26 16:29 | 55.34806 | -4.74190 | 22259 ft | 332 kts | 218° |
| 2026-04-26 16:29 | 55.32902 | -4.76495 | 22258 ft | 333 kts | 218° |
| 2026-04-26 16:30 | 55.30976 | -4.78756 | 22261 ft | 334 kts | 214° |
| 2026-04-26 16:30 | 55.28921 | -4.80700 | 22264 ft | 336 kts | 210° |
| 2026-04-26 16:30 | 55.26828 | -4.82522 | 22268 ft | 336 kts | 210° |
| 2026-04-26 16:30 | 55.24723 | -4.84323 | 22263 ft | 337 kts | 210° |
| 2026-04-26 16:31 | 55.22615 | -4.86130 | 22262 ft | 337 kts | 210° |
| 2026-04-26 16:31 | 55.20509 | -4.87947 | 22265 ft | 337 kts | 210° |
| 2026-04-26 16:31 | 55.18408 | -4.89770 | 22258 ft | 337 kts | 210° |
| 2026-04-26 16:31 | 55.16305 | -4.91601 | 22238 ft | 337 kts | 210° |
| 2026-04-26 16:32 | 55.14204 | -4.93433 | 22246 ft | 337 kts | 210° |
| 2026-04-26 16:32 | 55.12815 | -4.94644 | 22249 ft | 337 kts | 210° |
| 2026-04-26 16:32 | 55.10005 | -4.97095 | 22260 ft | 337 kts | 210° |
| 2026-04-26 16:32 | 55.07932 | -4.98902 | 22256 ft | 338 kts | 210° |
| 2026-04-26 16:33 | 55.05797 | -5.00761 | 22258 ft | 339 kts | 210° |
| 2026-04-26 16:33 | 55.03688 | -5.02596 | 22264 ft | 339 kts | 210° |
| 2026-04-26 16:33 | 55.01603 | -5.04406 | 22257 ft | 340 kts | 210° |
| 2026-04-26 16:33 | 54.99486 | -5.06243 | 22256 ft | 340 kts | 210° |
| 2026-04-26 16:34 | 54.97367 | -5.08080 | 22256 ft | 340 kts | 210° |
| 2026-04-26 16:34 | 54.95250 | -5.09913 | 22258 ft | 340 kts | 210° |
| 2026-04-26 16:34 | 54.93134 | -5.11742 | 22252 ft | 340 kts | 210° |
| 2026-04-26 16:34 | 54.91017 | -5.13570 | 22260 ft | 340 kts | 210° |
| 2026-04-26 16:35 | 54.88892 | -5.15363 | 22242 ft | 341 kts | 206° |
| 2026-04-26 16:35 | 54.86627 | -5.16636 | 22253 ft | 344 kts | 196° |
| 2026-04-26 16:35 | 54.84286 | -5.17508 | 22258 ft | 344 kts | 195° |
| 2026-04-26 16:35 | 54.81936 | -5.18339 | 22255 ft | 345 kts | 195° |
| 2026-04-26 16:36 | 54.79580 | -5.19170 | 22256 ft | 345 kts | 195° |
| 2026-04-26 16:36 | 54.77227 | -5.20010 | 22257 ft | 346 kts | 195° |
| 2026-04-26 16:36 | 54.74871 | -5.20860 | 22255 ft | 346 kts | 195° |
| 2026-04-26 16:36 | 54.72512 | -5.21717 | 22256 ft | 346 kts | 195° |
| 2026-04-26 16:37 | 54.70153 | -5.22578 | 22259 ft | 346 kts | 195° |
| 2026-04-26 16:37 | 54.67798 | -5.23439 | 22258 ft | 346 kts | 195° |
| 2026-04-26 16:37 | 54.65437 | -5.24302 | 22258 ft | 346 kts | 195° |
| 2026-04-26 16:37 | 54.63877 | -5.24872 | 22251 ft | 346 kts | 195° |
| 2026-04-26 16:38 | 54.60720 | -5.26025 | 22251 ft | 346 kts | 195° |
| 2026-04-26 16:38 | 54.58362 | -5.26885 | 22255 ft | 346 kts | 195° |
| 2026-04-26 16:38 | 54.56024 | -5.27736 | 22205 ft | 341 kts | 195° |
| 2026-04-26 16:38 | 54.53743 | -5.28565 | 21966 ft | 337 kts | 195° |
| 2026-04-26 16:39 | 54.51455 | -5.29396 | 21658 ft | 335 kts | 195° |
| 2026-04-26 16:39 | 54.49202 | -5.30288 | 21357 ft | 330 kts | 200° |
| 2026-04-26 16:39 | 54.47094 | -5.31770 | 21022 ft | 325 kts | 208° |
| 2026-04-26 16:39 | 54.45079 | -5.33485 | 20696 ft | 323 kts | 209° |
| 2026-04-26 16:40 | 54.43076 | -5.35216 | 20365 ft | 321 kts | 209° |
| 2026-04-26 16:40 | 54.41087 | -5.36929 | 20043 ft | 319 kts | 209° |
| 2026-04-26 16:40 | 54.39107 | -5.38624 | 19721 ft | 317 kts | 209° |
| 2026-04-26 16:40 | 54.37131 | -5.40307 | 19395 ft | 316 kts | 209° |
| 2026-04-26 16:41 | 54.35162 | -5.41975 | 19070 ft | 315 kts | 209° |
| 2026-04-26 16:41 | 54.33201 | -5.43630 | 18752 ft | 314 kts | 208° |
| 2026-04-26 16:41 | 54.31241 | -5.45281 | 18417 ft | 313 kts | 208° |
| 2026-04-26 16:41 | 54.29285 | -5.46925 | 18060 ft | 312 kts | 208° |
| 2026-04-26 16:42 | 54.27340 | -5.48559 | 17719 ft | 311 kts | 208° |
| 2026-04-26 16:42 | 54.25406 | -5.50181 | 17396 ft | 309 kts | 208° |
| 2026-04-26 16:42 | 54.23479 | -5.51795 | 17068 ft | 307 kts | 208° |
| 2026-04-26 16:42 | 54.21567 | -5.53395 | 16751 ft | 305 kts | 208° |
| 2026-04-26 16:43 | 54.19668 | -5.54984 | 16441 ft | 303 kts | 208° |
| 2026-04-26 16:43 | 54.17774 | -5.56565 | 16126 ft | 302 kts | 208° |
| 2026-04-26 16:43 | 54.15893 | -5.58133 | 15819 ft | 300 kts | 208° |
| 2026-04-26 16:43 | 54.14048 | -5.59671 | 15515 ft | 299 kts | 208° |
| 2026-04-26 16:44 | 54.12182 | -5.61223 | 15201 ft | 297 kts | 208° |
| 2026-04-26 16:44 | 54.10302 | -5.62786 | 14882 ft | 296 kts | 207° |
| 2026-04-26 16:44 | 54.08472 | -5.64306 | 14577 ft | 295 kts | 207° |
| 2026-04-26 16:44 | 54.06627 | -5.65836 | 14284 ft | 294 kts | 207° |
| 2026-04-26 16:45 | 54.04801 | -5.67350 | 14049 ft | 290 kts | 207° |
| 2026-04-26 16:45 | 54.02989 | -5.68852 | 13729 ft | 289 kts | 207° |
| 2026-04-26 16:45 | 54.01186 | -5.70345 | 13411 ft | 287 kts | 207° |
| 2026-04-26 16:45 | 53.99391 | -5.71827 | 13109 ft | 286 kts | 207° |
| 2026-04-26 16:46 | 53.97611 | -5.73297 | 12808 ft | 284 kts | 207° |
| 2026-04-26 16:46 | 53.95744 | -5.74351 | 12491 ft | 285 kts | 187° |
| 2026-04-26 16:46 | 53.93780 | -5.74522 | 12242 ft | 282 kts | 184° |
| 2026-04-26 16:46 | 53.91822 | -5.74632 | 11938 ft | 281 kts | 184° |
| 2026-04-26 16:47 | 53.89874 | -5.74741 | 11657 ft | 279 kts | 184° |
| 2026-04-26 16:47 | 53.87935 | -5.74857 | 11359 ft | 278 kts | 184° |
| 2026-04-26 16:47 | 53.86005 | -5.74980 | 11071 ft | 277 kts | 184° |
| 2026-04-26 16:47 | 53.84085 | -5.75107 | 10781 ft | 275 kts | 184° |
| 2026-04-26 16:48 | 53.82176 | -5.75237 | 10497 ft | 274 kts | 184° |
| 2026-04-26 16:48 | 53.80276 | -5.75368 | 10218 ft | 273 kts | 184° |
| 2026-04-26 16:48 | 53.78382 | -5.75500 | 9909 ft | 272 kts | 184° |
| 2026-04-26 16:48 | 53.76506 | -5.75631 | 9621 ft | 266 kts | 184° |
| 2026-04-26 16:49 | 53.74685 | -5.75758 | 9344 ft | 258 kts | 184° |
| 2026-04-26 16:49 | 53.72920 | -5.75882 | 9071 ft | 251 kts | 184° |
| 2026-04-26 16:49 | 53.71186 | -5.76004 | 8816 ft | 248 kts | 184° |
| 2026-04-26 16:49 | 53.69459 | -5.76127 | 8559 ft | 247 kts | 185° |
| 2026-04-26 16:50 | 53.67749 | -5.76247 | 8334 ft | 244 kts | 185° |
| 2026-04-26 16:50 | 53.66072 | -5.76364 | 8271 ft | 239 kts | 185° |
| 2026-04-26 16:50 | 53.64423 | -5.76474 | 8262 ft | 236 kts | 182° |
| 2026-04-26 16:50 | 53.62837 | -5.75840 | 8254 ft | 241 kts | 150° |
| 2026-04-26 16:51 | 53.61600 | -5.73928 | 8266 ft | 250 kts | 131° |
| 2026-04-26 16:51 | 53.60551 | -5.71562 | 8264 ft | 254 kts | 127° |
| 2026-04-26 16:51 | 53.59525 | -5.69155 | 8253 ft | 252 kts | 128° |
| 2026-04-26 16:51 | 53.58496 | -5.66772 | 8248 ft | 251 kts | 128° |
| 2026-04-26 16:52 | 53.57465 | -5.64416 | 8250 ft | 249 kts | 130° |
| 2026-04-26 16:52 | 53.56643 | -5.63045 | 8242 ft | 245 kts | 148° |
| 2026-04-26 16:52 | 53.54713 | -5.61132 | 8258 ft | 243 kts | 152° |
| 2026-04-26 16:52 | 53.53256 | -5.59675 | 8262 ft | 244 kts | 151° |
| 2026-04-26 16:53 | 53.51800 | -5.58200 | 8265 ft | 245 kts | 151° |
| 2026-04-26 16:53 | 53.50340 | -5.56714 | 8263 ft | 246 kts | 151° |
| 2026-04-26 16:53 | 53.48841 | -5.55322 | 8249 ft | 246 kts | 163° |
| 2026-04-26 16:53 | 53.47179 | -5.54788 | 8272 ft | 243 kts | 174° |
| 2026-04-26 16:54 | 53.45496 | -5.54378 | 8261 ft | 245 kts | 173° |
| 2026-04-26 16:54 | 53.43810 | -5.53936 | 8260 ft | 246 kts | 173° |
| 2026-04-26 16:54 | 53.42121 | -5.53480 | 8257 ft | 246 kts | 173° |
| 2026-04-26 16:54 | 53.40427 | -5.53019 | 8261 ft | 246 kts | 173° |
| 2026-04-26 16:55 | 53.38760 | -5.53206 | 8208 ft | 239 kts | 206° |
| 2026-04-26 16:55 | 53.37554 | -5.54957 | 8093 ft | 229 kts | 239° |
| 2026-04-26 16:55 | 53.36985 | -5.57417 | 7854 ft | 227 kts | 259° |
| 2026-04-26 16:55 | 53.37012 | -5.60060 | 7568 ft | 230 kts | 282° |
| 2026-04-26 16:56 | 53.37829 | -5.65201 | 7110 ft | 228 kts | 284° |
| 2026-04-26 16:56 | 53.38235 | -5.67757 | 6885 ft | 227 kts | 284° |
| 2026-04-26 16:56 | 53.38640 | -5.70308 | 6668 ft | 226 kts | 284° |
| 2026-04-26 16:57 | 53.39032 | -5.72846 | 6433 ft | 225 kts | 282° |
| 2026-04-26 16:57 | 53.39358 | -5.75441 | 6061 ft | 229 kts | 279° |
| 2026-04-26 16:57 | 53.39738 | -5.80772 | 5425 ft | 234 kts | 275° |
| 2026-04-26 16:58 | 53.39878 | -5.83501 | 5120 ft | 236 kts | 275° |
| 2026-04-26 16:58 | 53.39971 | -5.85357 | 4901 ft | 237 kts | 275° |
| 2026-04-26 16:58 | 53.40288 | -5.91701 | 4155 ft | 230 kts | 275° |
| 2026-04-26 16:59 | 53.40422 | -5.94333 | 3861 ft | 223 kts | 275° |
| 2026-04-26 16:59 | 53.40675 | -5.99285 | 3265 ft | 202 kts | 276° |
| 2026-04-26 17:00 | 53.40904 | -6.03735 | 2744 ft | 182 kts | 276° |
| 2026-04-26 17:00 | 53.41114 | -6.07775 | 2277 ft | 168 kts | 276° |
| 2026-04-26 17:00 | 53.41215 | -6.09698 | 2060 ft | 164 kts | 277° |
| 2026-04-26 17:01 | 53.41314 | -6.11581 | 1838 ft | 160 kts | 276° |
| 2026-04-26 17:01 | 53.41410 | -6.13397 | 1627 ft | 159 kts | 276° |
| 2026-04-26 17:01 | 53.41508 | -6.15255 | 1417 ft | 162 kts | 275° |
| 2026-04-26 17:01 | 53.41605 | -6.17097 | 1186 ft | 154 kts | 274° |
| 2026-04-26 17:02 | 53.41698 | -6.18839 | 981 ft | 151 kts | 274° |
| 2026-04-26 17:02 | 53.41793 | -6.20623 | 792 ft | 156 kts | 275° |
| 2026-04-26 17:02 | 53.41890 | -6.22459 | 582 ft | 160 kts | 274° |
| 2026-04-26 17:02 | 53.41983 | -6.24311 | 356 ft | 159 kts | 276° |
| 2026-04-26 17:03 | 53.42084 | -6.26145 | 213 ft | 150 kts | 276° |
| 2026-04-26 17:03 | 53.42161 | -6.27534 | 216 ft | 89 kts | 275° |
| 2026-04-26 17:03 | 53.42215 | -6.28143 | 217 ft | 26 kts | 294° |
| 2026-04-26 17:03 | 53.42285 | -6.28304 | 215 ft | 12 kts | 322° |
| 2026-04-26 17:04 | 53.42358 | -6.28300 | 212 ft | 11 kts | 39° |
| 2026-04-26 17:04 | 53.42370 | -6.28181 | 212 ft | 11 kts | 95° |
| 2026-04-26 17:04 | 53.42363 | -6.28047 | 215 ft | 13 kts | 95° |
| 2026-04-26 17:04 | 53.42353 | -6.27872 | 210 ft | 18 kts | 95° |
| 2026-04-26 17:05 | 53.42340 | -6.27633 | 212 ft | 23 kts | 95° |
| 2026-04-26 17:05 | 53.42323 | -6.27338 | 213 ft | 28 kts | 95° |
| 2026-04-26 17:05 | 53.42306 | -6.27007 | 218 ft | 28 kts | 95° |
| 2026-04-26 17:05 | 53.42289 | -6.26695 | 210 ft | 26 kts | 95° |
| 2026-04-26 17:06 | 53.42273 | -6.26402 | 214 ft | 24 kts | 95° |
| 2026-04-26 17:06 | 53.42287 | -6.26136 | 214 ft | 23 kts | 59° |
| 2026-04-26 17:06 | 53.42391 | -6.25941 | 210 ft | 22 kts | 46° |
| 2026-04-26 17:06 | 53.42499 | -6.25759 | 215 ft | 22 kts | 45° |
| 2026-04-26 17:07 | 53.42602 | -6.25582 | 210 ft | 21 kts | 46° |
| 2026-04-26 17:07 | 53.42701 | -6.25413 | 215 ft | 20 kts | 45° |
| 2026-04-26 17:07 | 53.42789 | -6.25269 | 214 ft | 15 kts | 31° |
| 2026-04-26 17:07 | 53.42883 | -6.25307 | 218 ft | 13 kts | 336° |
| 2026-04-26 17:08 | 53.42951 | -6.25282 | 213 ft | 12 kts | 68° |
| 2026-04-26 17:08 | 53.42960 | -6.25152 | 210 ft | 11 kts | 95° |
| 2026-04-26 17:08 | 53.42956 | -6.25043 | 210 ft | 8 kts | 86° |
| 2026-04-26 17:08 | 53.43003 | -6.25010 | 215 ft | 6 kts | 4° |
| 2026-04-26 17:09 | 53.43011 | -6.25008 | 212 ft | 0 kts | 5° |